createdAt,value
2022-08-02T00:02:09.285Z,27.58
2022-08-02T00:04:41.844Z,27.57
2022-08-02T00:07:14.903Z,27.57
2022-08-02T00:09:47.911Z,27.56
2022-08-02T00:12:20.924Z,27.55
2022-08-02T00:14:53.879Z,27.55
2022-08-02T00:17:26.900Z,27.54
2022-08-02T00:19:59.877Z,27.54
2022-08-02T00:22:32.901Z,27.53
2022-08-02T00:25:05.903Z,27.53
2022-08-02T00:27:38.901Z,27.52
2022-08-02T00:30:11.899Z,27.52
2022-08-02T00:32:44.890Z,27.52
2022-08-02T00:35:17.934Z,27.51
2022-08-02T00:37:50.900Z,27.51
2022-08-02T00:40:23.915Z,27.50
2022-08-02T00:42:56.900Z,27.50
2022-08-02T00:46:02.546Z,27.49
2022-08-02T00:48:02.939Z,27.49
2022-08-02T00:50:35.749Z,27.49
2022-08-02T00:53:08.934Z,27.48
2022-08-02T00:55:41.972Z,27.47
2022-08-02T00:58:14.998Z,27.47
2022-08-02T01:00:48.004Z,27.46
2022-08-02T01:03:20.896Z,27.45
2022-08-02T01:05:55.775Z,27.45
2022-08-02T01:08:29.346Z,27.44
2022-08-02T01:10:59.940Z,27.44
2022-08-02T01:13:32.953Z,27.43
2022-08-02T01:16:06.016Z,27.42
2022-08-02T01:18:39.005Z,27.42
2022-08-02T01:21:11.980Z,27.42
2022-08-02T01:23:45.019Z,27.41
2022-08-02T01:26:17.996Z,27.40
2022-08-02T01:28:51.023Z,27.40
2022-08-02T01:31:24.056Z,27.39
2022-08-02T01:33:57.039Z,27.39
2022-08-02T01:36:30.015Z,27.38
2022-08-02T01:39:02.983Z,27.38
2022-08-02T01:41:36.015Z,27.38
2022-08-02T01:44:09.033Z,27.37
2022-08-02T01:46:41.990Z,27.36
2022-08-02T01:49:14.998Z,27.36
2022-08-02T01:51:48.023Z,27.36
2022-08-02T01:54:21.019Z,27.35
2022-08-02T01:56:54.032Z,27.35
2022-08-02T01:59:27.014Z,27.34
2022-08-02T02:02:00.035Z,27.34
2022-08-02T02:04:33.070Z,27.33
2022-08-02T02:07:06.016Z,27.32
2022-08-02T02:09:47.682Z,27.32
2022-08-02T02:12:14.038Z,27.31
2022-08-02T02:14:51.407Z,27.31
2022-08-02T02:17:52.976Z,27.30
2022-08-02T02:19:51.013Z,27.29
2022-08-02T02:22:24.064Z,27.28
2022-08-02T02:24:57.074Z,27.28
2022-08-02T02:27:30.091Z,27.27
2022-08-02T02:30:03.033Z,27.27
2022-08-02T02:32:36.052Z,27.26
2022-08-02T02:35:09.106Z,27.25
2022-08-02T02:37:42.090Z,27.25
2022-08-02T02:40:15.139Z,27.24
2022-08-02T02:42:49.269Z,27.24
2022-08-02T02:45:21.103Z,27.23
2022-08-02T02:47:54.067Z,27.22
2022-08-02T02:50:27.125Z,27.22
2022-08-02T02:53:00.093Z,27.21
2022-08-02T02:56:02.556Z,27.21
2022-08-02T02:58:20.078Z,27.20
2022-08-02T03:00:53.125Z,27.19
2022-08-02T03:03:26.095Z,27.19
2022-08-02T03:05:59.138Z,27.19
2022-08-02T03:08:32.129Z,27.18
2022-08-02T03:11:05.299Z,27.17
2022-08-02T03:13:38.148Z,27.17
2022-08-02T03:16:13.079Z,27.16
2022-08-02T03:18:48.102Z,27.16
2022-08-02T03:21:21.152Z,27.15
2022-08-02T03:23:54.096Z,27.14
2022-08-02T03:26:27.180Z,27.14
2022-08-02T03:29:00.166Z,27.13
2022-08-02T03:31:33.178Z,27.12
2022-08-02T03:34:06.166Z,27.12
2022-08-02T03:36:39.167Z,27.11
2022-08-02T03:39:12.205Z,27.10
2022-08-02T03:41:45.234Z,27.10
2022-08-02T03:44:18.209Z,27.09
2022-08-02T03:46:51.172Z,27.09
2022-08-02T03:49:24.188Z,27.08
2022-08-02T03:51:57.197Z,27.08
2022-08-02T03:54:33.070Z,27.07
2022-08-02T03:57:03.196Z,27.06
2022-08-02T03:59:36.183Z,27.06
2022-08-02T04:02:09.529Z,27.06
2022-08-02T04:04:42.277Z,27.05
2022-08-02T04:07:15.226Z,27.02
2022-08-02T04:09:48.249Z,26.98
2022-08-02T04:12:20.939Z,26.94
2022-08-02T04:14:54.028Z,26.90
2022-08-02T04:17:27.014Z,26.85
2022-08-02T04:20:00.156Z,26.80
2022-08-02T04:22:33.029Z,26.75
2022-08-02T04:25:06.048Z,26.71
2022-08-02T04:27:51.166Z,26.67
2022-08-02T04:30:12.277Z,26.62
2022-08-02T04:32:45.289Z,26.59
2022-08-02T04:35:19.648Z,26.54
2022-08-02T04:38:08.799Z,26.51
2022-08-02T04:40:24.247Z,26.48
2022-08-02T04:42:57.320Z,26.44
2022-08-02T04:45:30.263Z,26.42
2022-08-02T04:48:05.661Z,26.40
2022-08-02T04:50:35.953Z,26.39
2022-08-02T04:53:09.271Z,26.39
2022-08-02T04:55:42.289Z,26.40
2022-08-02T04:58:38.948Z,26.41
2022-08-02T05:00:48.382Z,26.42
2022-08-02T05:03:21.274Z,26.44
2022-08-02T05:05:54.294Z,26.45
2022-08-02T05:08:27.343Z,26.47
2022-08-02T05:11:00.315Z,26.49
2022-08-02T05:13:33.297Z,26.50
2022-08-02T05:16:06.319Z,26.52
2022-08-02T05:18:39.309Z,26.53
2022-08-02T05:21:12.311Z,26.54
2022-08-02T05:23:45.293Z,26.56
2022-08-02T05:26:18.369Z,26.57
2022-08-02T05:28:51.311Z,26.59
2022-08-02T05:31:24.365Z,26.60
2022-08-02T05:33:57.339Z,26.61
2022-08-02T05:36:30.105Z,26.62
2022-08-02T05:39:05.319Z,26.63
2022-08-02T05:41:36.322Z,26.65
2022-08-02T05:44:09.336Z,26.66
2022-08-02T05:46:42.035Z,26.67
2022-08-02T05:49:15.430Z,26.67
2022-08-02T05:51:48.344Z,26.68
2022-08-02T05:54:21.354Z,26.69
2022-08-02T05:56:54.404Z,26.70
2022-08-02T05:59:27.413Z,26.71
2022-08-02T06:02:00.493Z,26.72
2022-08-02T06:04:33.369Z,26.72
2022-08-02T06:07:06.378Z,26.73
2022-08-02T06:09:39.393Z,26.74
2022-08-02T06:12:12.663Z,26.74
2022-08-02T06:14:45.389Z,26.75
2022-08-02T06:17:18.381Z,26.75
2022-08-02T06:19:52.777Z,26.76
2022-08-02T06:22:35.297Z,26.77
2022-08-02T06:24:57.421Z,26.77
2022-08-02T06:27:30.415Z,26.78
2022-08-02T06:30:03.445Z,26.78
2022-08-02T06:32:36.442Z,26.78
2022-08-02T06:35:09.393Z,26.79
2022-08-02T06:37:42.456Z,26.80
2022-08-02T06:40:15.438Z,26.80
2022-08-02T06:42:48.472Z,26.80
2022-08-02T06:45:21.468Z,26.80
2022-08-02T06:47:54.484Z,26.81
2022-08-02T06:50:27.448Z,26.81
2022-08-02T06:53:00.469Z,26.82
2022-08-02T06:55:33.438Z,26.82
2022-08-02T06:58:06.418Z,26.82
2022-08-02T07:00:39.429Z,26.83
2022-08-02T07:03:12.452Z,26.83
2022-08-02T07:05:45.449Z,26.83
2022-08-02T07:08:18.468Z,26.83
2022-08-02T07:10:51.471Z,26.84
2022-08-02T07:13:24.526Z,26.84
2022-08-02T07:15:57.490Z,26.84
2022-08-02T07:18:30.488Z,26.84
2022-08-02T07:21:03.605Z,26.85
2022-08-02T07:23:36.500Z,26.85
2022-08-02T07:26:09.494Z,26.85
2022-08-02T07:28:42.542Z,26.85
2022-08-02T07:31:15.514Z,26.85
2022-08-02T07:33:48.546Z,26.86
2022-08-02T07:36:22.602Z,26.86
2022-08-02T07:38:54.549Z,26.86
2022-08-02T07:41:27.521Z,26.86
2022-08-02T07:44:00.571Z,26.87
2022-08-02T07:46:33.468Z,26.87
2022-08-02T07:49:06.558Z,26.87
2022-08-02T07:51:39.524Z,26.88
2022-08-02T07:54:12.533Z,26.88
2022-08-02T07:56:45.428Z,26.88
2022-08-02T07:59:18.552Z,26.88
2022-08-02T08:01:51.622Z,26.88
2022-08-02T08:04:24.582Z,26.89
2022-08-02T08:06:57.559Z,26.89
2022-08-02T08:09:30.575Z,26.89
2022-08-02T08:12:03.566Z,26.89
2022-08-02T08:14:36.549Z,26.89
2022-08-02T08:17:09.620Z,26.89
2022-08-02T08:19:52.036Z,26.90
2022-08-02T08:22:15.238Z,26.90
2022-08-02T08:24:48.755Z,26.90
2022-08-02T08:27:21.624Z,26.91
2022-08-02T08:29:54.575Z,26.91
2022-08-02T08:32:27.534Z,26.91
2022-08-02T08:35:00.570Z,26.91
2022-08-02T08:37:33.596Z,26.91
2022-08-02T08:40:06.592Z,26.91
2022-08-02T08:42:39.613Z,26.92
2022-08-02T08:45:12.593Z,26.92
2022-08-02T08:47:45.622Z,26.92
2022-08-02T08:50:22.885Z,26.92
2022-08-02T08:52:51.603Z,26.93
2022-08-02T08:55:24.486Z,26.93
2022-08-02T08:57:57.414Z,26.93
2022-08-02T09:00:30.389Z,26.93
2022-08-02T09:03:03.618Z,26.93
2022-08-02T09:05:36.641Z,26.93
2022-08-02T09:08:13.469Z,26.93
2022-08-02T09:10:42.604Z,26.94
2022-08-02T09:13:37.530Z,26.94
2022-08-02T09:15:48.628Z,26.94
2022-08-02T09:18:21.669Z,26.94
2022-08-02T09:20:54.644Z,26.94
2022-08-02T09:23:27.709Z,26.94
2022-08-02T09:26:03.328Z,26.94
2022-08-02T09:28:33.703Z,26.95
2022-08-02T09:31:06.674Z,26.95
2022-08-02T09:33:39.706Z,26.95
2022-08-02T09:36:12.618Z,26.95
2022-08-02T09:38:45.648Z,26.95
2022-08-02T09:41:18.668Z,26.95
2022-08-02T09:43:51.986Z,26.96
2022-08-02T09:46:24.844Z,26.96
2022-08-02T09:48:57.758Z,26.96
2022-08-02T09:51:30.669Z,26.96
2022-08-02T09:54:08.812Z,26.97
2022-08-02T09:56:36.693Z,26.97
2022-08-02T09:59:09.383Z,26.97
2022-08-02T10:01:48.431Z,26.97
2022-08-02T10:04:21.328Z,26.98
2022-08-02T10:06:49.729Z,26.98
2022-08-02T10:09:22.772Z,26.98
2022-08-02T10:11:55.712Z,26.98
2022-08-02T10:14:28.795Z,26.98
2022-08-02T10:17:01.772Z,26.98
2022-08-02T10:20:03.049Z,26.99
2022-08-02T10:22:07.744Z,26.99
2022-08-02T10:24:47.564Z,26.99
2022-08-02T10:27:13.770Z,26.99
2022-08-02T10:29:53.919Z,27.00
2022-08-02T10:32:19.775Z,27.00
2022-08-02T10:34:52.761Z,27.00
2022-08-02T10:37:25.700Z,27.00
2022-08-02T10:39:58.788Z,27.00
2022-08-02T10:42:31.792Z,27.01
2022-08-02T10:45:04.747Z,27.01
2022-08-02T10:47:37.772Z,27.01
2022-08-02T10:50:10.873Z,27.01
2022-08-02T10:52:43.831Z,27.02
2022-08-02T10:55:22.516Z,27.02
2022-08-02T10:57:51.644Z,27.02
2022-08-02T11:00:22.595Z,27.03
2022-08-02T11:02:57.735Z,27.03
2022-08-02T11:05:43.207Z,27.03
2022-08-02T11:08:05.810Z,27.03
2022-08-02T11:10:38.839Z,27.04
2022-08-02T11:13:11.519Z,27.04
2022-08-02T11:15:44.591Z,27.05
2022-08-02T11:18:17.599Z,27.05
2022-08-02T11:20:50.607Z,27.05
2022-08-02T11:23:23.493Z,27.06
2022-08-02T11:26:11.411Z,27.06
2022-08-02T11:28:30.006Z,27.06
2022-08-02T11:31:03.633Z,27.07
2022-08-02T11:33:36.509Z,27.07
2022-08-02T11:36:09.527Z,27.07
2022-08-02T11:38:42.561Z,27.08
2022-08-02T11:41:15.632Z,27.08
2022-08-02T11:43:48.858Z,27.08
2022-08-02T11:46:21.635Z,27.08
2022-08-02T11:48:54.876Z,27.09
2022-08-02T11:51:27.850Z,27.09
2022-08-02T11:54:00.907Z,27.09
2022-08-02T11:56:33.604Z,27.10
2022-08-02T11:59:06.562Z,27.10
2022-08-02T12:01:45.486Z,27.10
2022-08-02T12:04:12.855Z,27.10
2022-08-02T12:06:45.936Z,27.11
2022-08-02T12:09:19.425Z,27.11
2022-08-02T12:11:51.865Z,27.12
2022-08-02T12:14:24.954Z,27.12
2022-08-02T12:16:57.926Z,27.12
2022-08-02T12:19:30.569Z,27.13
2022-08-02T12:22:04.058Z,27.13
2022-08-02T12:24:37.618Z,27.13
2022-08-02T12:27:10.974Z,27.14
2022-08-02T12:29:57.637Z,27.14
2022-08-02T12:32:16.605Z,27.14
2022-08-02T12:34:49.599Z,27.15
2022-08-02T12:37:22.616Z,27.15
2022-08-02T12:39:55.612Z,27.15
2022-08-02T12:42:28.637Z,27.15
2022-08-02T12:45:01.648Z,27.16
2022-08-02T12:47:36.171Z,27.16
2022-08-02T12:50:07.707Z,27.16
2022-08-02T12:52:40.631Z,27.16
2022-08-02T12:55:13.648Z,27.17
2022-08-02T12:57:46.639Z,27.17
2022-08-02T13:00:20.004Z,27.17
2022-08-02T13:02:52.761Z,27.17
2022-08-02T13:05:26.117Z,27.18
2022-08-02T13:07:59.947Z,27.18
2022-08-02T13:10:32.964Z,27.18
2022-08-02T13:13:05.658Z,27.19
2022-08-02T13:15:49.723Z,27.19
2022-08-02T13:18:11.984Z,27.19
2022-08-02T13:20:45.679Z,27.20
2022-08-02T13:23:21.762Z,27.20
2022-08-02T13:25:52.521Z,27.21
2022-08-02T13:28:23.750Z,27.21
2022-08-02T13:31:05.929Z,27.22
2022-08-02T13:33:29.816Z,27.22
2022-08-02T13:36:02.826Z,27.23
2022-08-02T13:38:35.860Z,27.23
2022-08-02T13:41:08.736Z,27.24
2022-08-02T13:43:54.047Z,27.25
2022-08-02T13:46:14.853Z,27.25
2022-08-02T13:48:47.825Z,27.26
2022-08-02T13:51:20.817Z,27.26
2022-08-02T13:53:54.017Z,27.27
2022-08-02T13:56:35.834Z,27.28
2022-08-02T13:59:00.022Z,27.28
2022-08-02T14:01:32.887Z,27.29
2022-08-02T14:04:08.920Z,27.29
2022-08-02T14:06:38.845Z,27.30
2022-08-02T14:09:15.692Z,27.31
2022-08-02T14:11:45.065Z,27.31
2022-08-02T14:14:17.870Z,27.32
2022-08-02T14:16:51.061Z,27.32
2022-08-02T14:19:23.865Z,27.33
2022-08-02T14:22:12.088Z,27.33
2022-08-02T14:24:30.088Z,27.34
2022-08-02T14:27:03.054Z,27.34
2022-08-02T14:29:35.869Z,27.35
2022-08-02T14:32:08.782Z,27.35
2022-08-02T14:34:41.773Z,27.36
2022-08-02T14:37:14.794Z,27.37
2022-08-02T14:39:59.991Z,27.38
2022-08-02T14:42:20.859Z,27.39
2022-08-02T14:44:53.879Z,27.40
2022-08-02T14:47:26.801Z,27.41
2022-08-02T14:49:59.970Z,27.42
2022-08-02T14:52:32.908Z,27.43
2022-08-02T14:55:05.811Z,27.44
2022-08-02T14:57:39.101Z,27.45
2022-08-02T15:00:12.052Z,27.47
2022-08-02T15:02:45.169Z,27.48
2022-08-02T15:05:18.194Z,27.50
2022-08-02T15:07:51.140Z,27.51
2022-08-02T15:10:24.129Z,27.53
2022-08-02T15:12:57.167Z,27.54
2022-08-02T15:15:30.154Z,27.55
2022-08-02T15:18:03.168Z,27.57
2022-08-02T15:20:35.826Z,27.58
2022-08-02T15:23:08.837Z,27.59
2022-08-02T15:25:42.154Z,27.60
2022-08-02T15:28:15.163Z,27.61
2022-08-02T15:30:48.169Z,27.63
2022-08-02T15:33:21.219Z,27.64
2022-08-02T15:35:54.186Z,27.65
2022-08-02T15:38:27.164Z,27.66
2022-08-02T15:41:00.168Z,27.67
2022-08-02T15:43:33.177Z,27.68
2022-08-02T15:46:06.165Z,27.70
2022-08-02T15:48:39.196Z,27.70
2022-08-02T15:51:12.235Z,27.72
2022-08-02T15:53:45.237Z,27.73
2022-08-02T15:56:17.889Z,27.74
2022-08-02T15:58:51.829Z,27.75
2022-08-02T16:01:40.281Z,27.76
2022-08-02T16:04:10.893Z,27.77
2022-08-02T16:06:46.188Z,27.78
2022-08-02T16:09:20.999Z,27.79
2022-08-02T16:11:53.932Z,27.80
2022-08-02T16:14:27.027Z,27.81
2022-08-02T16:16:59.987Z,27.83
2022-08-02T16:19:48.137Z,27.84
2022-08-02T16:22:05.929Z,27.85
2022-08-02T16:24:39.248Z,27.86
2022-08-02T16:27:11.932Z,27.87
2022-08-02T16:29:45.273Z,27.88
2022-08-02T16:32:18.297Z,27.89
2022-08-02T16:35:07.753Z,27.90
2022-08-02T16:37:24.324Z,27.91
2022-08-02T16:39:57.271Z,27.91
2022-08-02T16:42:30.269Z,27.92
2022-08-02T16:45:03.013Z,27.93
2022-08-02T16:47:37.153Z,27.93
2022-08-02T16:50:10.623Z,27.94
2022-08-02T16:52:42.273Z,27.95
2022-08-02T16:55:15.342Z,27.95
2022-08-02T16:57:50.173Z,27.96
2022-08-02T17:00:20.980Z,27.96
2022-08-02T17:02:54.068Z,27.96
2022-08-02T17:05:37.678Z,27.97
2022-08-02T17:08:07.695Z,27.97
2022-08-02T17:10:33.042Z,27.97
2022-08-02T17:13:11.081Z,27.98
2022-08-02T17:16:07.451Z,27.98
2022-08-02T17:18:12.446Z,27.98
2022-08-02T17:20:45.017Z,27.98
2022-08-02T17:23:18.205Z,27.99
2022-08-02T17:25:52.588Z,27.99
2022-08-02T17:28:31.295Z,27.99
2022-08-02T17:30:57.329Z,28.00
2022-08-02T17:33:30.391Z,28.00
2022-08-02T17:36:03.354Z,28.01
2022-08-02T17:38:36.381Z,28.02
2022-08-02T17:41:15.366Z,28.03
2022-08-02T17:43:42.333Z,28.05
2022-08-02T17:46:15.435Z,28.07
2022-08-02T17:48:48.367Z,28.08
2022-08-02T17:52:14.723Z,28.10
2022-08-02T17:53:54.473Z,28.12
2022-08-02T17:56:27.388Z,28.13
2022-08-02T17:59:00.190Z,28.15
2022-08-02T18:01:33.190Z,28.16
2022-08-02T18:04:06.413Z,28.18
2022-08-02T18:06:39.391Z,28.19
2022-08-02T18:09:12.349Z,28.20
2022-08-02T18:11:51.798Z,28.22
2022-08-02T18:14:18.429Z,28.23
2022-08-02T18:16:51.457Z,28.24
2022-08-02T18:19:33.066Z,28.26
2022-08-02T18:21:57.363Z,28.27
2022-08-02T18:24:30.447Z,28.28
2022-08-02T18:27:03.414Z,28.30
2022-08-02T18:29:38.716Z,28.31
2022-08-02T18:32:10.176Z,28.32
2022-08-02T18:34:47.560Z,28.33
2022-08-02T18:37:17.630Z,28.34
2022-08-02T18:39:51.275Z,28.36
2022-08-02T18:42:23.428Z,28.37
2022-08-02T18:44:56.450Z,28.38
2022-08-02T18:47:33.032Z,28.39
2022-08-02T18:50:02.585Z,28.40
2022-08-02T18:52:35.396Z,28.40
2022-08-02T18:55:10.452Z,28.41
2022-08-02T18:58:16.708Z,28.42
2022-08-02T19:00:14.468Z,28.42
2022-08-02T19:02:47.450Z,28.43
2022-08-02T19:05:21.141Z,28.43
2022-08-02T19:07:53.452Z,28.44
2022-08-02T19:10:26.444Z,28.44
2022-08-02T19:12:59.469Z,28.43
2022-08-02T19:15:32.537Z,28.42
2022-08-02T19:18:05.506Z,28.41
2022-08-02T19:20:38.352Z,28.40
2022-08-02T19:23:11.501Z,28.40
2022-08-02T19:25:47.332Z,28.39
2022-08-02T19:28:17.502Z,28.40
2022-08-02T19:30:50.518Z,28.40
2022-08-02T19:33:54.419Z,28.40
2022-08-02T19:36:01.934Z,28.41
2022-08-02T19:38:29.559Z,28.42
2022-08-02T19:41:02.567Z,28.42
2022-08-02T19:44:27.373Z,28.43
2022-08-02T19:46:08.541Z,28.43
2022-08-02T19:48:41.588Z,28.43
2022-08-02T19:51:14.528Z,28.44
2022-08-02T19:53:49.417Z,28.44
2022-08-02T19:56:25.387Z,28.44
2022-08-02T19:58:53.265Z,28.44
2022-08-02T20:01:36.891Z,28.44
2022-08-02T20:03:59.546Z,28.44
2022-08-02T20:06:32.272Z,28.44
2022-08-02T20:09:05.249Z,28.44
2022-08-02T20:11:38.517Z,28.44
2022-08-02T20:14:11.553Z,28.44
2022-08-02T20:16:46.027Z,28.44
2022-08-02T20:19:17.511Z,28.44
2022-08-02T20:21:55.434Z,28.44
2022-08-02T20:24:26.474Z,28.44
2022-08-02T20:26:59.513Z,28.44
2022-08-02T20:29:42.813Z,28.44
2022-08-02T20:32:02.607Z,28.44
2022-08-02T20:34:36.372Z,28.44
2022-08-02T20:38:00.257Z,28.44
2022-08-02T20:39:42.900Z,28.44
2022-08-02T20:42:23.921Z,28.44
2022-08-02T20:44:48.647Z,28.44
2022-08-02T20:47:27.822Z,28.44
2022-08-02T20:49:56.977Z,28.44
2022-08-02T20:52:27.667Z,28.44
2022-08-02T20:55:00.622Z,28.44
2022-08-02T20:57:48.958Z,28.44
2022-08-02T21:00:06.317Z,28.44
2022-08-02T21:02:39.677Z,28.43
2022-08-02T21:05:17.164Z,28.43
2022-08-02T21:07:45.449Z,28.42
2022-08-02T21:10:18.415Z,28.41
2022-08-02T21:12:51.349Z,28.40
2022-08-02T21:15:24.433Z,28.39
2022-08-02T21:18:01.202Z,28.38
2022-08-02T21:20:30.705Z,28.36
2022-08-02T21:23:03.393Z,28.35
2022-08-02T21:25:50.895Z,28.34
2022-08-02T21:28:09.364Z,28.32
2022-08-02T21:30:42.455Z,28.31
2022-08-02T21:33:22.428Z,28.29
2022-08-02T21:35:48.468Z,28.28
2022-08-02T21:38:35.434Z,28.26
2022-08-02T21:40:54.508Z,28.25
2022-08-02T21:43:35.202Z,28.23
2022-08-02T21:46:00.510Z,28.22
2022-08-02T21:48:33.486Z,28.21
2022-08-02T21:51:06.387Z,28.19
2022-08-02T21:53:42.042Z,28.18
2022-08-02T21:56:12.386Z,28.16
2022-08-02T21:58:45.520Z,28.15
2022-08-02T22:01:22.723Z,28.14
2022-08-02T22:03:55.635Z,28.12
2022-08-02T22:06:24.424Z,28.11
2022-08-02T22:08:57.531Z,28.10
2022-08-02T22:11:30.560Z,28.08
2022-08-02T22:14:03.750Z,28.07
2022-08-02T22:16:36.716Z,28.06
2022-08-02T22:19:09.746Z,28.05
2022-08-02T22:21:54.668Z,28.04
2022-08-02T22:24:19.568Z,28.02
2022-08-02T22:26:48.567Z,28.01
2022-08-02T22:29:21.734Z,28.00
2022-08-02T22:31:54.486Z,27.99
2022-08-02T22:34:51.295Z,27.98
2022-08-02T22:37:05.834Z,27.97
2022-08-02T22:39:37.594Z,27.96
2022-08-02T22:42:10.573Z,27.95
2022-08-02T22:44:44.186Z,27.94
2022-08-02T22:47:16.760Z,27.93
2022-08-02T22:49:54.429Z,27.92
2022-08-02T22:52:23.007Z,27.91
2022-08-02T22:54:55.847Z,27.90
2022-08-02T22:57:30.291Z,27.89
2022-08-02T23:00:01.836Z,27.88
2022-08-02T23:02:34.839Z,27.86
2022-08-02T23:05:07.802Z,27.85
2022-08-02T23:07:40.846Z,27.84
2022-08-02T23:10:13.814Z,27.83
2022-08-02T23:12:46.820Z,27.82
2022-08-02T23:15:19.811Z,27.81
2022-08-02T23:17:53.051Z,27.80
2022-08-02T23:20:25.834Z,27.79
2022-08-02T23:22:58.793Z,27.78
2022-08-02T23:25:31.827Z,27.77
2022-08-02T23:28:04.855Z,27.76
2022-08-02T23:30:37.820Z,27.75
2022-08-02T23:33:10.861Z,27.74
2022-08-02T23:35:43.861Z,27.73
2022-08-02T23:38:16.868Z,27.72
2022-08-02T23:40:49.866Z,27.71
2022-08-02T23:43:22.939Z,27.70
2022-08-02T23:45:55.896Z,27.70
2022-08-02T23:48:28.902Z,27.69
2022-08-02T23:51:01.879Z,27.68
2022-08-02T23:53:34.920Z,27.67
2022-08-02T23:56:07.958Z,27.67
2022-08-02T23:58:40.887Z,27.66
